world map with UKDE marked

UKDE - Airport

This information may not be accurate or current and is not valid for navigation or flight planning. No warranty of fitness for any purpose is made or implied.

flag of Zaporizhiaflag of Ukraine

Donate via PayPal

Additional information is available on the NEW Great Circle Mapper

Location
City:  Zaporozhye, Zaporizhia, Ukraine
Name:Mokraya International Airport
ICAO / IATA:UKDE / OZH

Details
Type:Airport (Aerodrome, Airfield)
Use:Public/Civil
Latitude:47°52'01"N (47.867003)
Longitude:35°18'56"E (35.315692)
Datum:WGS 1984
Elevation:373 ft (114 m)
Runways:1
Longest:8210 × 138 ft (2502 × 42 m)

Time
Timezone:UTC+2 (DST+5)
Local Time:

Weather
METAR:UKDE  041300Z 15004MPS CAVOK 10/06 Q1026 R02R/210370 NOSIG
TAF:UKDE  (expired)

Related Locations
Nearby:
Farthest:NEMO: 11459 mi / 18442 km
Pacific Ocean [Oceanic Pole of Inaccessibility (Point Nemo)]

Find:

   beyond  
but within

Other Information
Maps:
Sources:

  


 


Great Circle Mapper   Great Circle Mapper
Great Circle Mapper FAQ   Great Circle Mapper FAQ
  Karl's Home Page
KLSē   KLSē Home
   GC on Facebook
Airlines of the World   Airlines of the World
Donate via PayPal


Copyright © 2004-2020, Karl L. Swartz. All rights reserved.
All trademarks mentioned herein belong to their respective owners.

Please see credits for attribution and copyright information.

Karl Swartz <karl@kls2.com>
  Powered by FreeBSD
Valid HTML 4.01!
Labeled with ICRA
hCard Microformat
Geo Microformat